sensor_id;sensor_type;location;lat;lon;timestamp;P1;durP1;ratioP1;P2;durP2;ratioP2
39612;SDS011;25303;48.896;13.342;2023-04-15T00:00:41;0.20;;;0.17;;
39612;SDS011;25303;48.896;13.342;2023-04-15T00:03:26;0.20;;;0.20;;
39612;SDS011;25303;48.896;13.342;2023-04-15T00:06:10;0.20;;;0.20;;
39612;SDS011;25303;48.896;13.342;2023-04-15T00:08:53;0.15;;;0.15;;
39612;SDS011;25303;48.896;13.342;2023-04-15T00:11:37;0.20;;;0.20;;
39612;SDS011;25303;48.896;13.342;2023-04-15T00:14:20;0.20;;;0.20;;
39612;SDS011;25303;48.896;13.342;2023-04-15T00:17:03;0.15;;;0.15;;
39612;SDS011;25303;48.896;13.342;2023-04-15T00:19:47;0.13;;;0.13;;
39612;SDS011;25303;48.896;13.342;2023-04-15T00:22:30;0.10;;;0.10;;
39612;SDS011;25303;48.896;13.342;2023-04-15T00:25:13;0.20;;;0.20;;
39612;SDS011;25303;48.896;13.342;2023-04-15T00:27:57;0.20;;;0.20;;
39612;SDS011;25303;48.896;13.342;2023-04-15T00:30:39;1.00;;;0.25;;
39612;SDS011;25303;48.896;13.342;2023-04-15T00:33:23;0.20;;;0.20;;
39612;SDS011;25303;48.896;13.342;2023-04-15T00:36:07;0.20;;;0.20;;
39612;SDS011;25303;48.896;13.342;2023-04-15T00:38:51;0.90;;;0.20;;
39612;SDS011;25303;48.896;13.342;2023-04-15T00:41:34;0.40;;;0.20;;
39612;SDS011;25303;48.896;13.342;2023-04-15T00:44:19;0.20;;;0.20;;
39612;SDS011;25303;48.896;13.342;2023-04-15T00:47:02;0.40;;;0.20;;
39612;SDS011;25303;48.896;13.342;2023-04-15T00:52:31;0.70;;;0.20;;
39612;SDS011;25303;48.896;13.342;2023-04-15T00:55:15;0.25;;;0.10;;
39612;SDS011;25303;48.896;13.342;2023-04-15T00:57:58;0.20;;;0.20;;
39612;SDS011;25303;48.896;13.342;2023-04-15T01:00:41;0.20;;;0.20;;
39612;SDS011;25303;48.896;13.342;2023-04-15T01:03:24;0.20;;;0.20;;
39612;SDS011;25303;48.896;13.342;2023-04-15T01:06:07;0.20;;;0.20;;
39612;SDS011;25303;48.896;13.342;2023-04-15T01:08:52;0.55;;;0.20;;
39612;SDS011;25303;48.896;13.342;2023-04-15T01:11:35;0.85;;;0.20;;
39612;SDS011;25303;48.896;13.342;2023-04-15T01:14:21;0.20;;;0.20;;
39612;SDS011;25303;48.896;13.342;2023-04-15T01:17:05;0.20;;;0.20;;
39612;SDS011;25303;48.896;13.342;2023-04-15T01:19:48;0.30;;;0.30;;
39612;SDS011;25303;48.896;13.342;2023-04-15T01:22:31;0.10;;;0.10;;
39612;SDS011;25303;48.896;13.342;2023-04-15T01:25:17;0.10;;;0.10;;
39612;SDS011;25303;48.896;13.342;2023-04-15T01:28:03;0.25;;;0.25;;
39612;SDS011;25303;48.896;13.342;2023-04-15T01:30:46;0.20;;;0.20;;
39612;SDS011;25303;48.896;13.342;2023-04-15T01:33:29;0.20;;;0.20;;
39612;SDS011;25303;48.896;13.342;2023-04-15T01:36:12;0.20;;;0.20;;
39612;SDS011;25303;48.896;13.342;2023-04-15T01:38:55;0.20;;;0.20;;
39612;SDS011;25303;48.896;13.342;2023-04-15T01:41:40;0.20;;;0.20;;
39612;SDS011;25303;48.896;13.342;2023-04-15T01:44:24;0.20;;;0.20;;
39612;SDS011;25303;48.896;13.342;2023-04-15T01:47:07;0.20;;;0.20;;
39612;SDS011;25303;48.896;13.342;2023-04-15T01:49:50;0.40;;;0.30;;
39612;SDS011;25303;48.896;13.342;2023-04-15T01:52:33;0.17;;;0.17;;
39612;SDS011;25303;48.896;13.342;2023-04-15T01:55:16;0.22;;;0.22;;
39612;SDS011;25303;48.896;13.342;2023-04-15T01:57:59;0.10;;;0.10;;
39612;SDS011;25303;48.896;13.342;2023-04-15T02:00:43;0.30;;;0.20;;
39612;SDS011;25303;48.896;13.342;2023-04-15T02:03:27;0.10;;;0.10;;
39612;SDS011;25303;48.896;13.342;2023-04-15T02:06:10;0.10;;;0.10;;
39612;SDS011;25303;48.896;13.342;2023-04-15T02:08:53;0.10;;;0.10;;
39612;SDS011;25303;48.896;13.342;2023-04-15T02:11:36;0.40;;;0.20;;
39612;SDS011;25303;48.896;13.342;2023-04-15T02:14:19;0.10;;;0.10;;
39612;SDS011;25303;48.896;13.342;2023-04-15T02:17:04;0.13;;;0.13;;
39612;SDS011;25303;48.896;13.342;2023-04-15T02:19:48;0.25;;;0.25;;
39612;SDS011;25303;48.896;13.342;2023-04-15T02:22:31;0.13;;;0.13;;
39612;SDS011;25303;48.896;13.342;2023-04-15T02:25:14;0.35;;;0.22;;
39612;SDS011;25303;48.896;13.342;2023-04-15T02:27:58;0.10;;;0.10;;
39612;SDS011;25303;48.896;13.342;2023-04-15T02:30:41;0.20;;;0.10;;
39612;SDS011;25303;48.896;13.342;2023-04-15T02:33:25;0.38;;;0.20;;
39612;SDS011;25303;48.896;13.342;2023-04-15T02:36:08;0.10;;;0.10;;
39612;SDS011;25303;48.896;13.342;2023-04-15T02:41:36;0.08;;;0.00;;
39612;SDS011;25303;48.896;13.342;2023-04-15T02:44:19;0.13;;;0.10;;
39612;SDS011;25303;48.896;13.342;2023-04-15T02:47:05;0.10;;;0.10;;
39612;SDS011;25303;48.896;13.342;2023-04-15T02:49:51;0.10;;;0.10;;
39612;SDS011;25303;48.896;13.342;2023-04-15T02:52:34;0.35;;;0.00;;
39612;SDS011;25303;48.896;13.342;2023-04-15T02:55:16;0.10;;;0.10;;
39612;SDS011;25303;48.896;13.342;2023-04-15T02:57:59;0.00;;;0.00;;
39612;SDS011;25303;48.896;13.342;2023-04-15T03:00:43;0.10;;;0.10;;
39612;SDS011;25303;48.896;13.342;2023-04-15T03:03:25;0.10;;;0.10;;
39612;SDS011;25303;48.896;13.342;2023-04-15T03:06:10;0.20;;;0.10;;
39612;SDS011;25303;48.896;13.342;2023-04-15T03:08:53;0.00;;;0.00;;
39612;SDS011;25303;48.896;13.342;2023-04-15T03:11:37;0.00;;;0.00;;
39612;SDS011;25303;48.896;13.342;2023-04-15T03:14:23;0.03;;;0.00;;
39612;SDS011;25303;48.896;13.342;2023-04-15T03:17:06;0.10;;;0.00;;
39612;SDS011;25303;48.896;13.342;2023-04-15T03:19:49;0.35;;;0.10;;
39612;SDS011;25303;48.896;13.342;2023-04-15T03:22:33;0.00;;;0.00;;
39612;SDS011;25303;48.896;13.342;2023-04-15T03:25:17;1.65;;;0.00;;
39612;SDS011;25303;48.896;13.342;2023-04-15T03:28:00;0.20;;;0.00;;
39612;SDS011;25303;48.896;13.342;2023-04-15T03:30:43;0.63;;;0.00;;
39612;SDS011;25303;48.896;13.342;2023-04-15T03:33:26;0.00;;;0.00;;
39612;SDS011;25303;48.896;13.342;2023-04-15T03:36:09;0.08;;;0.08;;
39612;SDS011;25303;48.896;13.342;2023-04-15T03:38:54;0.40;;;0.00;;
39612;SDS011;25303;48.896;13.342;2023-04-15T03:41:37;0.00;;;0.00;;
39612;SDS011;25303;48.896;13.342;2023-04-15T03:44:19;0.63;;;0.10;;
39612;SDS011;25303;48.896;13.342;2023-04-15T03:47:02;0.00;;;0.00;;
39612;SDS011;25303;48.896;13.342;2023-04-15T03:49:45;17.10;;;5.30;;
39612;SDS011;25303;48.896;13.342;2023-04-15T03:52:28;37.53;;;14.10;;
39612;SDS011;25303;48.896;13.342;2023-04-15T03:55:12;9.65;;;4.05;;
39612;SDS011;25303;48.896;13.342;2023-04-15T04:00:38;2.70;;;1.15;;
39612;SDS011;25303;48.896;13.342;2023-04-15T04:03:21;2.35;;;0.50;;
39612;SDS011;25303;48.896;13.342;2023-04-15T04:06:05;0.40;;;0.20;;
39612;SDS011;25303;48.896;13.342;2023-04-15T04:08:48;0.50;;;0.20;;
39612;SDS011;25303;48.896;13.342;2023-04-15T04:11:32;0.10;;;0.03;;
39612;SDS011;25303;48.896;13.342;2023-04-15T04:14:15;0.95;;;0.10;;
39612;SDS011;25303;48.896;13.342;2023-04-15T04:16:58;0.40;;;0.20;;
39612;SDS011;25303;48.896;13.342;2023-04-15T04:19:41;0.40;;;0.20;;
39612;SDS011;25303;48.896;13.342;2023-04-15T04:22:24;0.08;;;0.05;;
39612;SDS011;25303;48.896;13.342;2023-04-15T04:25:07;10.60;;;0.40;;
39612;SDS011;25303;48.896;13.342;2023-04-15T04:27:52;0.10;;;0.10;;
39612;SDS011;25303;48.896;13.342;2023-04-15T04:30:35;0.20;;;0.20;;
39612;SDS011;25303;48.896;13.342;2023-04-15T04:33:18;0.22;;;0.20;;
39612;SDS011;25303;48.896;13.342;2023-04-15T04:36:01;0.13;;;0.10;;
39612;SDS011;25303;48.896;13.342;2023-04-15T04:38:44;0.30;;;0.20;;
39612;SDS011;25303;48.896;13.342;2023-04-15T04:41:27;0.13;;;0.10;;
39612;SDS011;25303;48.896;13.342;2023-04-15T04:44:11;0.10;;;0.10;;
39612;SDS011;25303;48.896;13.342;2023-04-15T04:46:54;0.17;;;0.17;;
39612;SDS011;25303;48.896;13.342;2023-04-15T04:49:37;0.32;;;0.20;;
39612;SDS011;25303;48.896;13.342;2023-04-15T04:52:20;0.40;;;0.20;;
39612;SDS011;25303;48.896;13.342;2023-04-15T04:55:03;0.50;;;0.10;;
39612;SDS011;25303;48.896;13.342;2023-04-15T04:57:46;0.20;;;0.20;;
39612;SDS011;25303;48.896;13.342;2023-04-15T05:00:31;0.70;;;0.70;;
39612;SDS011;25303;48.896;13.342;2023-04-15T05:03:13;0.82;;;0.40;;
39612;SDS011;25303;48.896;13.342;2023-04-15T05:05:57;0.10;;;0.10;;
39612;SDS011;25303;48.896;13.342;2023-04-15T05:08:40;0.20;;;0.08;;
39612;SDS011;25303;48.896;13.342;2023-04-15T05:11:23;0.10;;;0.10;;
39612;SDS011;25303;48.896;13.342;2023-04-15T05:14:06;0.00;;;0.00;;
39612;SDS011;25303;48.896;13.342;2023-04-15T05:16:50;0.00;;;0.00;;
39612;SDS011;25303;48.896;13.342;2023-04-15T05:19:33;0.10;;;0.10;;
39612;SDS011;25303;48.896;13.342;2023-04-15T05:22:16;0.10;;;0.10;;
39612;SDS011;25303;48.896;13.342;2023-04-15T05:24:58;0.10;;;0.10;;
39612;SDS011;25303;48.896;13.342;2023-04-15T05:27:41;0.10;;;0.10;;
39612;SDS011;25303;48.896;13.342;2023-04-15T05:30:24;0.10;;;0.10;;
39612;SDS011;25303;48.896;13.342;2023-04-15T05:33:09;0.13;;;0.13;;
39612;SDS011;25303;48.896;13.342;2023-04-15T05:35:52;0.13;;;0.13;;
39612;SDS011;25303;48.896;13.342;2023-04-15T05:38:34;0.00;;;0.00;;
39612;SDS011;25303;48.896;13.342;2023-04-15T05:41:17;0.10;;;0.10;;
39612;SDS011;25303;48.896;13.342;2023-04-15T05:44:01;0.80;;;0.28;;
39612;SDS011;25303;48.896;13.342;2023-04-15T05:46:44;0.10;;;0.10;;
39612;SDS011;25303;48.896;13.342;2023-04-15T05:49:28;0.08;;;0.08;;
39612;SDS011;25303;48.896;13.342;2023-04-15T05:52:11;0.00;;;0.00;;
39612;SDS011;25303;48.896;13.342;2023-04-15T05:54:54;0.73;;;0.20;;
39612;SDS011;25303;48.896;13.342;2023-04-15T05:57:37;0.10;;;0.10;;
39612;SDS011;25303;48.896;13.342;2023-04-15T06:00:20;0.35;;;0.20;;
39612;SDS011;25303;48.896;13.342;2023-04-15T06:03:03;0.40;;;0.30;;
39612;SDS011;25303;48.896;13.342;2023-04-15T06:05:48;0.63;;;0.30;;
39612;SDS011;25303;48.896;13.342;2023-04-15T06:08:30;0.40;;;0.40;;
39612;SDS011;25303;48.896;13.342;2023-04-15T06:11:13;0.57;;;0.40;;
39612;SDS011;25303;48.896;13.342;2023-04-15T06:13:56;0.57;;;0.43;;
39612;SDS011;25303;48.896;13.342;2023-04-15T06:16:39;0.32;;;0.30;;
39612;SDS011;25303;48.896;13.342;2023-04-15T06:19:22;0.13;;;0.13;;
39612;SDS011;25303;48.896;13.342;2023-04-15T06:22:07;0.40;;;0.30;;
39612;SDS011;25303;48.896;13.342;2023-04-15T06:24:50;0.70;;;0.25;;
39612;SDS011;25303;48.896;13.342;2023-04-15T06:27:33;0.63;;;0.40;;
39612;SDS011;25303;48.896;13.342;2023-04-15T06:30:16;0.40;;;0.30;;
39612;SDS011;25303;48.896;13.342;2023-04-15T06:32:59;0.43;;;0.20;;
39612;SDS011;25303;48.896;13.342;2023-04-15T06:35:43;0.20;;;0.20;;
39612;SDS011;25303;48.896;13.342;2023-04-15T06:38:28;0.17;;;0.17;;
39612;SDS011;25303;48.896;13.342;2023-04-15T06:41:10;0.10;;;0.10;;
39612;SDS011;25303;48.896;13.342;2023-04-15T06:43:53;0.20;;;0.10;;
39612;SDS011;25303;48.896;13.342;2023-04-15T06:46:36;0.20;;;0.20;;
39612;SDS011;25303;48.896;13.342;2023-04-15T06:49:19;0.10;;;0.10;;
39612;SDS011;25303;48.896;13.342;2023-04-15T06:52:02;0.10;;;0.10;;
39612;SDS011;25303;48.896;13.342;2023-04-15T06:54:47;0.63;;;0.40;;
39612;SDS011;25303;48.896;13.342;2023-04-15T06:57:29;0.93;;;0.40;;
39612;SDS011;25303;48.896;13.342;2023-04-15T07:00:15;0.50;;;0.30;;
39612;SDS011;25303;48.896;13.342;2023-04-15T07:02:58;0.10;;;0.10;;
39612;SDS011;25303;48.896;13.342;2023-04-15T07:05:43;0.10;;;0.10;;
39612;SDS011;25303;48.896;13.342;2023-04-15T07:08:26;6.10;;;2.40;;
39612;SDS011;25303;48.896;13.342;2023-04-15T07:11:11;3.45;;;1.33;;
39612;SDS011;25303;48.896;13.342;2023-04-15T07:13:54;2.17;;;1.25;;
39612;SDS011;25303;48.896;13.342;2023-04-15T07:16:37;1.38;;;1.00;;
39612;SDS011;25303;48.896;13.342;2023-04-15T07:19:20;0.50;;;0.45;;
39612;SDS011;25303;48.896;13.342;2023-04-15T07:22:03;0.22;;;0.22;;
39612;SDS011;25303;48.896;13.342;2023-04-15T07:24:46;0.40;;;0.20;;
39612;SDS011;25303;48.896;13.342;2023-04-15T07:27:30;0.30;;;0.20;;
39612;SDS011;25303;48.896;13.342;2023-04-15T07:30:13;0.80;;;0.38;;
39612;SDS011;25303;48.896;13.342;2023-04-15T07:32:57;0.40;;;0.30;;
39612;SDS011;25303;48.896;13.342;2023-04-15T07:35:40;0.20;;;0.20;;
39612;SDS011;25303;48.896;13.342;2023-04-15T07:38:22;0.30;;;0.20;;
39612;SDS011;25303;48.896;13.342;2023-04-15T07:41:05;0.50;;;0.32;;
39612;SDS011;25303;48.896;13.342;2023-04-15T07:43:50;0.38;;;0.32;;
39612;SDS011;25303;48.896;13.342;2023-04-15T07:46:32;0.65;;;0.40;;
39612;SDS011;25303;48.896;13.342;2023-04-15T07:49:15;1.23;;;0.55;;
39612;SDS011;25303;48.896;13.342;2023-04-15T07:51:59;0.20;;;0.20;;
39612;SDS011;25303;48.896;13.342;2023-04-15T07:54:42;0.55;;;0.45;;
39612;SDS011;25303;48.896;13.342;2023-04-15T07:57:25;0.65;;;0.40;;
39612;SDS011;25303;48.896;13.342;2023-04-15T08:00:10;0.60;;;0.40;;
39612;SDS011;25303;48.896;13.342;2023-04-15T08:02:55;0.38;;;0.30;;
39612;SDS011;25303;48.896;13.342;2023-04-15T08:05:40;0.55;;;0.30;;
39612;SDS011;25303;48.896;13.342;2023-04-15T08:08:22;0.28;;;0.20;;
39612;SDS011;25303;48.896;13.342;2023-04-15T08:11:06;0.73;;;0.40;;
39612;SDS011;25303;48.896;13.342;2023-04-15T08:13:48;0.55;;;0.30;;
39612;SDS011;25303;48.896;13.342;2023-04-15T08:16:33;0.38;;;0.30;;
39612;SDS011;25303;48.896;13.342;2023-04-15T08:21:59;0.20;;;0.20;;
39612;SDS011;25303;48.896;13.342;2023-04-15T08:24:42;0.40;;;0.20;;
39612;SDS011;25303;48.896;13.342;2023-04-15T08:27:24;0.17;;;0.17;;
39612;SDS011;25303;48.896;13.342;2023-04-15T08:30:08;0.63;;;0.30;;
39612;SDS011;25303;48.896;13.342;2023-04-15T08:32:52;0.30;;;0.20;;
39612;SDS011;25303;48.896;13.342;2023-04-15T08:35:35;2.40;;;1.65;;
39612;SDS011;25303;48.896;13.342;2023-04-15T08:38:18;1.00;;;0.80;;
39612;SDS011;25303;48.896;13.342;2023-04-15T08:41:02;0.32;;;0.30;;
39612;SDS011;25303;48.896;13.342;2023-04-15T08:43:51;0.20;;;0.20;;
39612;SDS011;25303;48.896;13.342;2023-04-15T08:46:36;0.75;;;0.35;;
39612;SDS011;25303;48.896;13.342;2023-04-15T08:49:21;0.70;;;0.30;;
39612;SDS011;25303;48.896;13.342;2023-04-15T08:52:08;0.43;;;0.40;;
39612;SDS011;25303;48.896;13.342;2023-04-15T08:54:53;0.50;;;0.20;;
39612;SDS011;25303;48.896;13.342;2023-04-15T08:57:39;0.20;;;0.20;;
39612;SDS011;25303;48.896;13.342;2023-04-15T09:00:21;0.20;;;0.15;;
39612;SDS011;25303;48.896;13.342;2023-04-15T09:03:05;0.70;;;0.70;;
39612;SDS011;25303;48.896;13.342;2023-04-15T09:05:50;0.50;;;0.38;;
39612;SDS011;25303;48.896;13.342;2023-04-15T09:11:17;0.50;;;0.50;;
39612;SDS011;25303;48.896;13.342;2023-04-15T09:14:00;0.53;;;0.40;;
39612;SDS011;25303;48.896;13.342;2023-04-15T09:16:56;0.17;;;0.17;;
39612;SDS011;25303;48.896;13.342;2023-04-15T09:19:41;0.20;;;0.15;;
39612;SDS011;25303;48.896;13.342;2023-04-15T09:22:30;0.70;;;0.30;;
39612;SDS011;25303;48.896;13.342;2023-04-15T09:28:15;0.30;;;0.30;;
39612;SDS011;25303;48.896;13.342;2023-04-15T09:31:06;0.75;;;0.30;;
39612;SDS011;25303;48.896;13.342;2023-04-15T09:33:53;0.20;;;0.20;;
39612;SDS011;25303;48.896;13.342;2023-04-15T09:36:50;0.20;;;0.20;;
39612;SDS011;25303;48.896;13.342;2023-04-15T09:39:45;0.57;;;0.20;;
39612;SDS011;25303;48.896;13.342;2023-04-15T09:42:30;0.35;;;0.20;;
39612;SDS011;25303;48.896;13.342;2023-04-15T09:45:13;1.08;;;0.20;;
39612;SDS011;25303;48.896;13.342;2023-04-15T09:47:56;0.17;;;0.17;;
39612;SDS011;25303;48.896;13.342;2023-04-15T09:50:41;0.20;;;0.20;;
39612;SDS011;25303;48.896;13.342;2023-04-15T09:56:10;0.10;;;0.10;;
39612;SDS011;25303;48.896;13.342;2023-04-15T09:58:55;1.52;;;0.30;;
39612;SDS011;25303;48.896;13.342;2023-04-15T10:01:38;0.50;;;0.20;;
39612;SDS011;25303;48.896;13.342;2023-04-15T10:04:23;0.15;;;0.15;;
39612;SDS011;25303;48.896;13.342;2023-04-15T10:07:08;0.17;;;0.17;;
39612;SDS011;25303;48.896;13.342;2023-04-15T10:09:51;0.20;;;0.20;;
39612;SDS011;25303;48.896;13.342;2023-04-15T10:12:36;0.13;;;0.10;;
39612;SDS011;25303;48.896;13.342;2023-04-15T10:15:19;0.32;;;0.20;;
39612;SDS011;25303;48.896;13.342;2023-04-15T10:18:03;0.30;;;0.22;;
39612;SDS011;25303;48.896;13.342;2023-04-15T10:20:49;0.70;;;0.30;;
39612;SDS011;25303;48.896;13.342;2023-04-15T10:23:32;0.28;;;0.20;;
39612;SDS011;25303;48.896;13.342;2023-04-15T10:26:15;0.35;;;0.10;;
39612;SDS011;25303;48.896;13.342;2023-04-15T10:29:00;0.82;;;0.20;;
39612;SDS011;25303;48.896;13.342;2023-04-15T10:31:44;0.10;;;0.10;;
39612;SDS011;25303;48.896;13.342;2023-04-15T10:34:27;0.10;;;0.10;;
39612;SDS011;25303;48.896;13.342;2023-04-15T10:37:11;0.20;;;0.20;;
39612;SDS011;25303;48.896;13.342;2023-04-15T10:39:54;0.40;;;0.20;;
39612;SDS011;25303;48.896;13.342;2023-04-15T10:42:37;0.10;;;0.10;;
39612;SDS011;25303;48.896;13.342;2023-04-15T10:45:21;0.40;;;0.20;;
39612;SDS011;25303;48.896;13.342;2023-04-15T10:48:07;1.33;;;0.30;;
39612;SDS011;25303;48.896;13.342;2023-04-15T10:50:54;1.38;;;0.80;;
39612;SDS011;25303;48.896;13.342;2023-04-15T10:53:37;0.57;;;0.40;;
39612;SDS011;25303;48.896;13.342;2023-04-15T10:56:23;2.65;;;1.92;;
39612;SDS011;25303;48.896;13.342;2023-04-15T10:59:06;2.33;;;1.58;;
39612;SDS011;25303;48.896;13.342;2023-04-15T11:01:51;1.65;;;1.05;;
39612;SDS011;25303;48.896;13.342;2023-04-15T11:04:53;1.55;;;1.17;;
39612;SDS011;25303;48.896;13.342;2023-04-15T11:07:39;2.28;;;1.40;;
39612;SDS011;25303;48.896;13.342;2023-04-15T11:13:34;8.30;;;3.15;;
39612;SDS011;25303;48.896;13.342;2023-04-15T11:16:17;4.63;;;1.90;;
39612;SDS011;25303;48.896;13.342;2023-04-15T11:19:02;2.65;;;1.23;;
39612;SDS011;25303;48.896;13.342;2023-04-15T11:21:45;11.10;;;3.92;;
39612;SDS011;25303;48.896;13.342;2023-04-15T11:24:28;13.70;;;6.00;;
39612;SDS011;25303;48.896;13.342;2023-04-15T11:27:16;4.32;;;2.08;;
39612;SDS011;25303;48.896;13.342;2023-04-15T11:30:06;6.80;;;2.78;;
39612;SDS011;25303;48.896;13.342;2023-04-15T11:32:59;3.92;;;2.70;;
39612;SDS011;25303;48.896;13.342;2023-04-15T11:35:45;1.98;;;1.23;;
39612;SDS011;25303;48.896;13.342;2023-04-15T11:38:28;0.60;;;0.47;;
39612;SDS011;25303;48.896;13.342;2023-04-15T11:41:11;0.80;;;0.70;;
39612;SDS011;25303;48.896;13.342;2023-04-15T11:43:54;0.55;;;0.43;;
39612;SDS011;25303;48.896;13.342;2023-04-15T11:46:37;0.85;;;0.63;;
39612;SDS011;25303;48.896;13.342;2023-04-15T11:49:27;1.52;;;0.82;;
39612;SDS011;25303;48.896;13.342;2023-04-15T11:52:12;1.00;;;0.68;;
39612;SDS011;25303;48.896;13.342;2023-04-15T11:55:00;1.08;;;0.80;;
39612;SDS011;25303;48.896;13.342;2023-04-15T11:57:44;0.93;;;0.60;;
39612;SDS011;25303;48.896;13.342;2023-04-15T12:00:27;1.20;;;0.50;;
39612;SDS011;25303;48.896;13.342;2023-04-15T12:03:11;0.70;;;0.50;;
39612;SDS011;25303;48.896;13.342;2023-04-15T12:06:02;1.10;;;0.40;;
39612;SDS011;25303;48.896;13.342;2023-04-15T12:08:59;0.60;;;0.32;;
39612;SDS011;25303;48.896;13.342;2023-04-15T12:11:44;0.50;;;0.35;;
39612;SDS011;25303;48.896;13.342;2023-04-15T12:14:29;1.10;;;0.40;;
39612;SDS011;25303;48.896;13.342;2023-04-15T12:17:13;1.02;;;0.35;;
39612;SDS011;25303;48.896;13.342;2023-04-15T12:19:57;0.35;;;0.35;;
39612;SDS011;25303;48.896;13.342;2023-04-15T12:22:40;0.57;;;0.43;;
39612;SDS011;25303;48.896;13.342;2023-04-15T12:25:33;1.00;;;0.60;;
39612;SDS011;25303;48.896;13.342;2023-04-15T12:28:16;0.60;;;0.45;;
39612;SDS011;25303;48.896;13.342;2023-04-15T12:30:59;1.63;;;1.00;;
39612;SDS011;25303;48.896;13.342;2023-04-15T12:33:49;2.35;;;0.93;;
39612;SDS011;25303;48.896;13.342;2023-04-15T12:36:32;0.82;;;0.60;;
39612;SDS011;25303;48.896;13.342;2023-04-15T12:39:17;2.40;;;1.60;;
39612;SDS011;25303;48.896;13.342;2023-04-15T12:42:05;1.50;;;1.20;;
39612;SDS011;25303;48.896;13.342;2023-04-15T12:44:48;1.00;;;0.70;;
39612;SDS011;25303;48.896;13.342;2023-04-15T12:47:31;1.00;;;0.70;;
39612;SDS011;25303;48.896;13.342;2023-04-15T12:50:14;0.63;;;0.50;;
39612;SDS011;25303;48.896;13.342;2023-04-15T12:52:58;0.93;;;0.60;;
39612;SDS011;25303;48.896;13.342;2023-04-15T12:55:40;0.80;;;0.60;;
39612;SDS011;25303;48.896;13.342;2023-04-15T12:58:25;0.70;;;0.60;;
39612;SDS011;25303;48.896;13.342;2023-04-15T13:01:07;0.80;;;0.60;;
39612;SDS011;25303;48.896;13.342;2023-04-15T13:03:51;0.55;;;0.50;;
39612;SDS011;25303;48.896;13.342;2023-04-15T13:06:34;1.00;;;0.52;;
39612;SDS011;25303;48.896;13.342;2023-04-15T13:09:18;5.75;;;1.05;;
39612;SDS011;25303;48.896;13.342;2023-04-15T13:12:01;1.23;;;0.80;;
39612;SDS011;25303;48.896;13.342;2023-04-15T13:14:47;3.33;;;1.23;;
39612;SDS011;25303;48.896;13.342;2023-04-15T13:17:30;2.42;;;1.50;;
39612;SDS011;25303;48.896;13.342;2023-04-15T13:20:13;2.33;;;1.58;;
39612;SDS011;25303;48.896;13.342;2023-04-15T13:22:56;4.60;;;2.17;;
39612;SDS011;25303;48.896;13.342;2023-04-15T13:25:39;1.80;;;1.00;;
39612;SDS011;25303;48.896;13.342;2023-04-15T13:28:21;1.42;;;1.02;;
39612;SDS011;25303;48.896;13.342;2023-04-15T13:31:06;1.63;;;0.98;;
39612;SDS011;25303;48.896;13.342;2023-04-15T13:36:31;1.48;;;0.85;;
39612;SDS011;25303;48.896;13.342;2023-04-15T13:39:14;2.00;;;1.73;;
39612;SDS011;25303;48.896;13.342;2023-04-15T13:41:57;1.25;;;1.05;;
39612;SDS011;25303;48.896;13.342;2023-04-15T13:44:40;3.40;;;2.35;;
39612;SDS011;25303;48.896;13.342;2023-04-15T13:47:24;1.20;;;0.98;;
39612;SDS011;25303;48.896;13.342;2023-04-15T13:50:08;1.05;;;0.70;;
39612;SDS011;25303;48.896;13.342;2023-04-15T13:52:52;2.50;;;1.10;;
39612;SDS011;25303;48.896;13.342;2023-04-15T13:55:35;2.65;;;1.20;;
39612;SDS011;25303;48.896;13.342;2023-04-15T13:58:21;2.25;;;1.00;;
39612;SDS011;25303;48.896;13.342;2023-04-15T14:01:04;1.83;;;0.90;;
39612;SDS011;25303;48.896;13.342;2023-04-15T14:03:49;1.25;;;0.70;;
39612;SDS011;25303;48.896;13.342;2023-04-15T14:06:32;1.23;;;0.60;;
39612;SDS011;25303;48.896;13.342;2023-04-15T14:09:15;1.25;;;0.70;;
39612;SDS011;25303;48.896;13.342;2023-04-15T14:11:58;1.20;;;0.60;;
39612;SDS011;25303;48.896;13.342;2023-04-15T14:14:41;1.35;;;0.70;;
39612;SDS011;25303;48.896;13.342;2023-04-15T14:17:24;1.00;;;0.73;;
39612;SDS011;25303;48.896;13.342;2023-04-15T14:20:10;1.08;;;0.65;;
39612;SDS011;25303;48.896;13.342;2023-04-15T14:22:55;0.70;;;0.50;;
39612;SDS011;25303;48.896;13.342;2023-04-15T14:25:38;0.50;;;0.50;;
39612;SDS011;25303;48.896;13.342;2023-04-15T14:28:21;1.15;;;0.68;;
39612;SDS011;25303;48.896;13.342;2023-04-15T14:31:04;0.70;;;0.50;;
39612;SDS011;25303;48.896;13.342;2023-04-15T14:33:47;0.82;;;0.60;;
39612;SDS011;25303;48.896;13.342;2023-04-15T14:36:31;1.50;;;0.98;;
39612;SDS011;25303;48.896;13.342;2023-04-15T14:39:15;0.70;;;0.60;;
39612;SDS011;25303;48.896;13.342;2023-04-15T14:41:57;0.63;;;0.45;;
39612;SDS011;25303;48.896;13.342;2023-04-15T14:44:40;0.47;;;0.40;;
39612;SDS011;25303;48.896;13.342;2023-04-15T14:47:25;0.90;;;0.63;;
39612;SDS011;25303;48.896;13.342;2023-04-15T14:50:08;0.63;;;0.55;;
39612;SDS011;25303;48.896;13.342;2023-04-15T14:52:53;0.40;;;0.40;;
39612;SDS011;25303;48.896;13.342;2023-04-15T14:55:36;0.65;;;0.60;;
39612;SDS011;25303;48.896;13.342;2023-04-15T14:58:18;0.90;;;0.60;;
39612;SDS011;25303;48.896;13.342;2023-04-15T15:01:02;0.68;;;0.55;;
39612;SDS011;25303;48.896;13.342;2023-04-15T15:03:45;0.63;;;0.60;;
39612;SDS011;25303;48.896;13.342;2023-04-15T15:06:29;0.70;;;0.60;;
39612;SDS011;25303;48.896;13.342;2023-04-15T15:09:13;1.30;;;0.70;;
39612;SDS011;25303;48.896;13.342;2023-04-15T15:11:56;1.05;;;0.75;;
39612;SDS011;25303;48.896;13.342;2023-04-15T15:14:40;0.70;;;0.68;;
39612;SDS011;25303;48.896;13.342;2023-04-15T15:17:22;1.80;;;0.80;;
39612;SDS011;25303;48.896;13.342;2023-04-15T15:20:06;0.98;;;0.70;;
39612;SDS011;25303;48.896;13.342;2023-04-15T15:22:49;0.68;;;0.65;;
39612;SDS011;25303;48.896;13.342;2023-04-15T15:25:34;1.17;;;0.80;;
39612;SDS011;25303;48.896;13.342;2023-04-15T15:28:17;1.00;;;0.85;;
39612;SDS011;25303;48.896;13.342;2023-04-15T15:31:02;1.40;;;0.93;;
39612;SDS011;25303;48.896;13.342;2023-04-15T15:33:45;2.70;;;1.15;;
39612;SDS011;25303;48.896;13.342;2023-04-15T15:36:28;2.42;;;1.42;;
39612;SDS011;25303;48.896;13.342;2023-04-15T15:39:11;2.67;;;1.80;;
39612;SDS011;25303;48.896;13.342;2023-04-15T15:41:55;1.90;;;1.40;;
39612;SDS011;25303;48.896;13.342;2023-04-15T15:44:38;2.03;;;1.55;;
39612;SDS011;25303;48.896;13.342;2023-04-15T15:47:21;2.63;;;1.70;;
39612;SDS011;25303;48.896;13.342;2023-04-15T15:50:05;1.98;;;1.48;;
39612;SDS011;25303;48.896;13.342;2023-04-15T15:52:48;2.10;;;1.20;;
39612;SDS011;25303;48.896;13.342;2023-04-15T15:55:31;2.80;;;1.50;;
39612;SDS011;25303;48.896;13.342;2023-04-15T15:58:15;4.05;;;2.38;;
39612;SDS011;25303;48.896;13.342;2023-04-15T16:00:58;3.50;;;2.00;;
39612;SDS011;25303;48.896;13.342;2023-04-15T16:03:42;1.83;;;1.40;;
39612;SDS011;25303;48.896;13.342;2023-04-15T16:06:25;4.18;;;1.67;;
39612;SDS011;25303;48.896;13.342;2023-04-15T16:09:08;3.90;;;1.88;;
39612;SDS011;25303;48.896;13.342;2023-04-15T16:11:51;9.15;;;4.10;;
39612;SDS011;25303;48.896;13.342;2023-04-15T16:14:35;2.88;;;1.80;;
39612;SDS011;25303;48.896;13.342;2023-04-15T16:17:18;3.20;;;1.30;;
39612;SDS011;25303;48.896;13.342;2023-04-15T16:20:01;3.30;;;1.20;;
39612;SDS011;25303;48.896;13.342;2023-04-15T16:25:28;21.13;;;8.45;;
39612;SDS011;25303;48.896;13.342;2023-04-15T16:28:11;8.95;;;4.10;;
39612;SDS011;25303;48.896;13.342;2023-04-15T16:31:08;29.13;;;10.40;;
39612;SDS011;25303;48.896;13.342;2023-04-15T16:33:52;57.22;;;20.45;;
39612;SDS011;25303;48.896;13.342;2023-04-15T16:36:35;45.42;;;18.42;;
39612;SDS011;25303;48.896;13.342;2023-04-15T16:39:20;24.02;;;10.43;;